Aérodrome :
LOGIN :

S'inscrire | Disclaimer

   EN    FR    IT 

 










Légende :    VFR   VFR Marginal   IFR   IFR Intensif   IFR Très Intensif
Visi : 
Plafond : 
>= 8 km
>= 3000ft
5 à 8 km
1000 à 3000 ft
1500m à 5 km
500 à 1000 ft
800 à 1500m
200 à 500 ft
< 800m
< 200 ft
Symboles :   Orages  Brouillard  Fortes neiges  Fortes précipitations  Vent > 20 kt
SIGMETs :   Divers  Orages  Givrage  Turbulence  Onde Orograph.  Cendres Volcan.







- Altitude de l'aérodrome : 75 ft
- Code IATA : MRH


EGYM - RAF Marham

DERNIER METAR :
  • 131150Z 21016KT 9999 -RA FEW006 SCT040 BKN120 06/05 Q0993 BLU TEMPO 7000 -RA SCT012 GRN

METARs EXPIRÉS :
  • 131050Z 22013KT 9999 -RA FEW045 SCT080 BKN120 05/04 Q0995 BLU TEMPO 7000 -RA WHT

TAF TAF EGYM
Valide du 13 à 12h jusqu'au 13 à 21h UTC


131113Z 1312/1321 22015G25KT 9999 SCT040
TEMPO 1312/1316 7000 -RA SCT012
PROB30
TEMPO 1313/1315 4000 RA SCT006
BECMG 1314/1316 26015G25KT
TEMPO 1320/1321 3000 SHRASN SCT006 OVC012
Pas de NOTAMs connus pour ce terrain.



MET'MAP, la Météo Aéronautique d'un coup d'oeil ! - Copyright ORBIFLY Décembre 2007 - Disclaimer

ORBIFLY MET'MAP TEAM :

Programmation & Développement : Alexandra Zaïnal
Conception & Développement : Baudouin d'Aumeries
Co-Programmation & Développement : Marc-Olivier Méhu
Soutien technique & logistique : Manuel Goepfert

Contact : metmap@orbifly.com




SOURCES & CREDITS :

   NOAA